Terminal Aerodrome Forecast
Issued by NWS

Home | Current Version | Previous Version | Text Only | Print | Product List | Glossary On
Versions: 1 2 3 4 5 6 7 8 9 10 11 12 13 14 15 16
000
FTUS42 KMHX 012300
TAFOAJ
TAF
KOAJ 012321Z 0200/0224 14006KT P6SM SCT015 OVC060
     FM020600 13003KT 3SM BR VCSH BKN007 OVC015
     FM021300 15008KT 5SM -SHRA SCT007 OVC025
     FM021800 12005KT 6SM -SHRA OVC030
      AMD LTD TO CLD VIS AND WIND=

USA.gov is the U.S. government's official web portal to all federal, state and local government web resources and services.